Terminal Aerodrome Forecast
Issued by NWS

Home | Current Version | Previous Version | Text Only | Print | Product List | Glossary On
Versions: 1 2 3 4 5 6 7 8 9 10 11 12 13 14 15 16 17 18 19 20 21 22 23 24 25 26 27 28 29 30 31 32 33 34 35 36 37 38 39 40 41 42 43 44 45 46 47 48 49 50
000
FTAK31 PANC 301501 AAA
TAFASN
TAF AMD
PASN 301501Z 3015/3112 05005KT 1SM BR OVC002
      TEMPO 3015/3018 6SM BR
     FM302100 06010KT 3SM BR SCT002 OVC005
     FM310900 08010G18KT 1SM BR OVC007=

USA.gov is the U.S. government's official web portal to all federal, state and local government web resources and services.